Time;durP1;ratioP1;P1;durP2;ratioP2;P2;SDS_P1;SDS_P2;PMS_P1;PMS_P2;Temp;Humidity;BMP_temperature;BMP_pressure;BME280_temperature;BME280_humidity;BME280_pressure;Samples;Min_cycle;Max_cycle;Signal;HPM_P1;HPM_P2
2022/09/11 00:01:38;;;;;;;13.27;6.03;;;16.50;99.90;;;;;;5114900;28;20028;-56
2022/09/11 00:04:05;;;;;;;22.98;6.38;;;16.50;99.90;;;;;;5115074;28;20469;-56
2022/09/11 00:06:31;;;;;;;15.45;6.22;;;16.40;99.90;;;;;;5115032;28;20438;-57
2022/09/11 00:08:59;;;;;;;12.57;6.28;;;16.40;99.90;;;;;;5111877;28;20032;-56
2022/09/11 00:11:28;;;;;;;14.27;7.18;;;16.40;99.90;;;;;;5114872;28;20031;-56
2022/09/11 00:13:55;;;;;;;16.10;8.02;;;16.40;99.90;;;;;;5114828;28;20076;-56
2022/09/11 00:16:33;;;;;;;10.23;6.55;;;16.40;99.90;;;;;;5115042;28;20111;-56
2022/09/11 00:19:05;;;;;;;17.45;7.25;;;16.50;99.90;;;;;;5114764;28;20039;-56
2022/09/11 00:21:31;;;;;;;16.50;7.35;;;16.40;99.90;;;;;;5114720;28;20027;-56
2022/09/11 00:23:57;;;;;;;16.15;7.65;;;16.30;99.90;;;;;;5114649;28;20038;-56
2022/09/11 00:26:24;;;;;;;29.77;8.82;;;16.30;99.90;;;;;;5114832;28;20027;-56
2022/09/11 00:28:51;;;;;;;15.82;8.13;;;16.20;99.90;;;;;;5114787;28;20019;-56
2022/09/11 00:31:19;;;;;;;14.85;8.45;;;16.20;99.90;;;;;;5113562;28;20028;-56
2022/09/11 00:33:45;;;;;;;15.27;8.73;;;16.10;99.90;;;;;;5114691;28;20043;-57
2022/09/11 00:36:15;;;;;;;23.08;9.45;;;16.10;99.90;;;;;;5114816;28;20103;-56
2022/09/11 00:38:41;;;;;;;26.13;9.68;;;16.10;99.90;;;;;;5116637;28;20039;-56
2022/09/11 00:41:24;;;;;;;19.02;9.25;;;16.10;99.90;;;;;;5118651;28;20031;-56
2022/09/11 00:44:02;;;;;;;15.77;9.40;;;16.20;99.90;;;;;;5100614;28;20031;-56
2022/09/11 00:47:02;;;;;;;14.07;8.55;;;16.20;99.90;;;;;;5118631;28;20031;-56
2022/09/11 00:49:35;;;;;;;15.93;9.77;;;16.10;99.90;;;;;;5118345;28;20043;-56
2022/09/11 00:52:26;;;;;;;16.73;8.07;;;16.20;99.90;;;;;;5118343;28;20507;-56
2022/09/11 00:55:03;;;;;;;12.35;7.20;;;16.30;99.90;;;;;;5110827;28;20430;-56
2022/09/11 00:57:35;;;;;;;13.52;8.48;;;16.30;99.90;;;;;;5118559;28;20102;-56
2022/09/11 01:00:03;;;;;;;13.68;8.30;;;16.30;99.90;;;;;;5116929;28;20035;-56
2022/09/11 01:02:32;;;;;;;20.35;9.48;;;16.30;99.90;;;;;;5118282;28;20027;-56
2022/09/11 01:04:58;;;;;;;11.93;8.30;;;16.40;99.90;;;;;;5118258;28;20063;-57
2022/09/11 01:07:27;;;;;;;14.98;9.73;;;16.40;99.90;;;;;;5118511;28;20027;-56
2022/09/11 01:09:54;;;;;;;19.63;9.20;;;16.40;99.90;;;;;;5117037;28;20031;-56
2022/09/11 01:12:26;;;;;;;33.75;11.25;;;16.50;99.90;;;;;;5118281;28;20469;-56
2022/09/11 01:15:07;;;;;;;87.55;12.35;;;16.50;99.90;;;;;;5116785;28;20024;-56
2022/09/11 01:17:35;;;;;;;130.95;13.07;;;16.50;99.90;;;;;;5118335;28;20066;-57
2022/09/11 01:20:29;;;;;;;25.52;10.45;;;16.40;99.90;;;;;;5116623;28;20035;-56
2022/09/11 01:23:11;;;;;;;23.88;9.52;;;16.50;99.90;;;;;;5117902;28;20035;-56
2022/09/11 01:26:00;;;;;;;16.45;9.00;;;16.60;99.90;;;;;;5117933;28;20376;-56
2022/09/11 01:28:59;;;;;;;16.40;8.40;;;16.60;99.90;;;;;;5116461;28;20450;-56
2022/09/11 01:31:29;;;;;;;22.55;8.82;;;16.60;99.90;;;;;;5110657;28;20119;-57
2022/09/11 01:34:22;;;;;;;21.27;8.25;;;16.50;99.90;;;;;;5116499;28;20031;-56
2022/09/11 01:36:56;;;;;;;19.77;7.60;;;16.50;99.90;;;;;;5117613;28;20052;-56
2022/09/11 01:39:28;;;;;;;13.90;8.38;;;16.50;99.90;;;;;;5116514;28;20023;-56
2022/09/11 01:42:02;;;;;;;20.70;7.88;;;16.50;99.90;;;;;;5116386;28;20249;-56
2022/09/11 01:44:34;;;;;;;17.45;7.90;;;16.50;99.90;;;;;;5116212;28;20040;-57
2022/09/11 01:47:06;;;;;;;9.15;7.10;;;16.40;99.90;;;;;;5116229;28;20036;-57
2022/09/11 01:49:34;;;;;;;13.95;8.90;;;16.40;99.90;;;;;;5116409;28;20284;-56
2022/09/11 01:52:06;;;;;;;8.82;7.47;;;16.40;99.90;;;;;;5115844;28;20096;-56
2022/09/11 01:54:41;;;;;;;13.95;7.75;;;16.40;99.90;;;;;;5117477;28;20019;-56
2022/09/11 01:57:16;;;;;;;18.95;8.10;;;16.40;99.90;;;;;;5116059;28;20385;-57
2022/09/11 01:59:48;;;;;;;16.20;7.65;;;16.30;99.90;;;;;;5115851;28;20027;-56
2022/09/11 02:02:17;;;;;;;;;;;16.30;99.90;;;;;;5117948;28;20027;-56
2022/09/11 02:04:53;;;;;;;30.02;9.63;;;16.40;99.90;;;;;;5117287;28;19994;-56
2022/09/11 02:07:27;;;;;;;24.10;11.00;;;16.50;99.90;;;;;;5115688;28;20051;-56
2022/09/11 02:09:58;;;;;;;24.77;10.48;;;16.50;99.90;;;;;;5115843;28;20024;-56
2022/09/11 02:12:40;;;;;;;21.08;11.20;;;16.60;99.90;;;;;;5115580;28;20023;-57
2022/09/11 02:15:08;;;;;;;21.70;10.82;;;16.50;99.90;;;;;;5115720;28;20028;-56
2022/09/11 02:18:00;;;;;;;25.60;11.38;;;16.30;99.90;;;;;;5115666;28;20027;-57
2022/09/11 02:20:28;;;;;;;30.00;11.73;;;16.40;99.90;;;;;;5115200;28;20032;-57
2022/09/11 02:22:55;;;;;;;19.15;10.75;;;16.50;99.90;;;;;;5115600;28;20051;-57
2022/09/11 02:25:23;;;;;;;20.90;9.88;;;16.40;99.90;;;;;;5116665;28;20039;-56
2022/09/11 02:27:53;;;;;;;20.98;10.07;;;16.40;99.90;;;;;;5115462;28;20051;-56
2022/09/11 02:30:20;;;;;;;25.65;11.25;;;16.50;99.90;;;;;;5115637;28;20099;-57
2022/09/11 02:32:46;;;;;;;32.97;13.45;;;16.60;99.90;;;;;;5115261;28;20497;-57
2022/09/11 02:35:15;;;;;;;32.28;13.38;;;16.50;99.90;;;;;;5115227;28;20035;-56
2022/09/11 02:38:13;;;;;;;33.60;13.32;;;16.50;99.90;;;;;;5115199;28;20140;-57
2022/09/11 02:41:00;;;;;;;31.33;12.65;;;16.60;99.90;;;;;;5112863;28;20105;-57
2022/09/11 02:43:50;;;;;;;40.47;15.52;;;16.50;99.90;;;;;;5115128;28;20512;-56
2022/09/11 02:46:36;;;;;;;39.60;15.10;;;16.50;99.90;;;;;;5115087;28;20088;-57
2022/09/11 02:49:18;;;;;;;37.53;14.15;;;16.50;99.90;;;;;;5116253;28;20465;-56
2022/09/11 02:52:17;;;;;;;42.38;13.52;;;16.60;99.90;;;;;;5114820;28;20396;-57
2022/09/11 02:55:05;;;;;;;34.35;14.60;;;16.60;99.90;;;;;;5115982;28;20024;-57
2022/09/11 02:57:44;;;;;;;40.60;16.17;;;16.60;99.90;;;;;;5114993;28;20027;-57
2022/09/11 03:00:12;;;;;;;45.97;16.52;;;16.60;99.90;;;;;;5115985;28;20555;-56
2022/09/11 03:02:41;;;;;;;39.85;16.45;;;16.60;99.90;;;;;;5114452;28;20024;-56
2022/09/11 03:05:09;;;;;;;44.10;18.55;;;16.70;99.90;;;;;;5114790;28;20028;-57
2022/09/11 03:07:36;;;;;;;59.17;19.77;;;16.80;99.90;;;;;;5115839;27;20438;-57
2022/09/11 03:10:02;;;;;;;53.47;19.08;;;16.90;99.90;;;;;;5114610;28;20063;-57
2022/09/11 03:12:29;;;;;;;54.97;19.17;;;16.90;99.90;;;;;;5114620;28;20028;-57
2022/09/11 03:14:56;;;;;;;54.10;19.42;;;16.80;99.90;;;;;;5114450;28;20418;-56
2022/09/11 03:17:22;;;;;;;45.05;18.55;;;17.00;99.90;;;;;;5114309;28;20096;-56
2022/09/11 03:19:48;;;;;;;52.88;19.65;;;17.00;99.90;;;;;;5114498;28;20023;-57
2022/09/11 03:22:14;;;;;;;59.35;20.95;;;17.00;99.90;;;;;;5114233;28;20023;-56
2022/09/11 03:24:41;;;;;;;50.58;19.55;;;17.00;99.90;;;;;;5115782;28;20039;-57
2022/09/11 03:27:08;;;;;;;45.17;19.42;;;17.00;99.90;;;;;;5114288;28;20055;-57
2022/09/11 03:29:34;;;;;;;50.00;20.15;;;17.00;99.90;;;;;;5114297;28;20027;-56
2022/09/11 03:32:01;;;;;;;46.85;18.13;;;16.90;99.90;;;;;;5115646;28;20062;-56
2022/09/11 03:34:28;;;;;;;48.38;19.45;;;16.90;99.90;;;;;;5114221;28;20023;-56
2022/09/11 03:36:54;;;;;;;40.40;17.88;;;16.90;99.90;;;;;;5114129;28;20054;-56
2022/09/11 03:39:20;;;;;;;29.13;12.85;;;17.00;99.90;;;;;;5097184;28;20434;-57
2022/09/11 03:41:46;;;;;;;26.35;12.25;;;17.00;99.90;;;;;;5115286;28;20054;-57
2022/09/11 03:44:12;;;;;;;22.15;11.05;;;17.00;99.90;;;;;;5115313;28;20107;-57
2022/09/11 03:46:38;;;;;;;25.27;11.80;;;17.00;99.90;;;;;;5114005;28;20117;-57
2022/09/11 03:49:05;;;;;;;33.40;12.98;;;17.00;99.90;;;;;;5114004;28;20497;-56
2022/09/11 03:51:32;;;;;;;26.15;12.30;;;17.00;99.90;;;;;;5113713;28;20088;-56
2022/09/11 03:54:01;;;;;;;25.70;10.48;;;16.90;99.90;;;;;;5113823;28;20024;-56
2022/09/11 03:56:29;;;;;;;23.00;11.50;;;17.00;99.90;;;;;;5113851;28;20035;-57
2022/09/11 03:58:57;;;;;;;20.80;11.13;;;17.00;99.90;;;;;;5115379;28;20388;-57
2022/09/11 04:01:23;;;;;;;26.45;12.68;;;17.10;99.90;;;;;;5113828;28;20027;-57
2022/09/11 04:03:51;;;;;;;23.98;12.75;;;17.00;99.90;;;;;;5113792;28;20031;-56
2022/09/11 04:06:25;;;;;;;20.42;11.10;;;17.00;99.90;;;;;;5113595;28;20032;-57
2022/09/11 04:08:53;;;;;;;22.98;11.25;;;17.10;99.90;;;;;;5113603;28;20028;-56
2022/09/11 04:11:20;;;;;;;21.38;11.80;;;17.10;99.90;;;;;;5113765;28;20095;-56
2022/09/11 04:13:46;;;;;;;23.33;12.43;;;17.20;99.90;;;;;;5114273;28;20023;-57
2022/09/11 04:16:16;;;;;;;26.45;14.57;;;17.10;99.90;;;;;;5113643;28;20020;-57
2022/09/11 04:18:45;;;;;;;29.35;15.88;;;17.10;99.90;;;;;;5096806;28;20122;-56
2022/09/11 04:21:14;;;;;;;33.70;16.90;;;17.20;99.90;;;;;;5113440;28;20036;-56
2022/09/11 04:23:41;;;;;;;47.33;21.15;;;17.10;99.90;;;;;;5113282;28;20060;-56
2022/09/11 04:26:15;;;;;;;54.97;23.08;;;16.90;99.90;;;;;;5114854;28;20362;-56
2022/09/11 04:28:42;;;;;;;58.92;24.45;;;16.90;99.90;;;;;;5113325;28;20526;-56
2022/09/11 04:31:11;;;;;;;48.00;19.95;;;17.00;99.90;;;;;;5113389;28;20422;-56
2022/09/11 04:33:38;;;;;;;64.03;20.05;;;16.70;99.90;;;;;;5113472;28;20020;-56
2022/09/11 04:36:09;;;;;;;45.10;16.92;;;16.60;99.90;;;;;;5113468;28;20108;-56
2022/09/11 04:38:36;;;;;;;46.88;19.25;;;16.60;99.90;;;;;;5113405;28;20042;-56
2022/09/11 04:41:04;;;;;;;50.75;17.98;;;16.60;99.90;;;;;;5113288;28;20031;-56
2022/09/11 04:43:30;;;;;;;38.08;17.00;;;16.80;99.90;;;;;;5113239;28;20545;-56
2022/09/11 04:46:00;;;;;;;39.28;17.27;;;16.90;99.90;;;;;;5113385;28;20118;-56
2022/09/11 04:48:26;;;;;;;48.63;17.13;;;17.00;99.90;;;;;;5113190;28;20039;-56
2022/09/11 04:51:06;;;;;;;40.25;17.15;;;17.00;99.90;;;;;;5113207;28;20040;-56
2022/09/11 04:53:33;;;;;;;40.37;16.57;;;17.00;99.90;;;;;;5114699;28;20073;-56
2022/09/11 04:56:08;;;;;;;37.53;16.73;;;17.20;99.90;;;;;;5113203;28;20295;-56
2022/09/11 04:58:41;;;;;;;39.35;16.98;;;17.10;99.90;;;;;;5113456;28;20039;-56
2022/09/11 05:01:15;;;;;;;37.70;14.88;;;17.10;99.90;;;;;;5113196;28;20023;-56
2022/09/11 05:03:43;;;;;;;35.15;14.75;;;17.10;99.90;;;;;;5113101;28;20028;-56
2022/09/11 05:06:15;;;;;;;35.60;15.68;;;17.10;99.90;;;;;;5113301;28;20085;-57
2022/09/11 05:08:46;;;;;;;41.90;17.33;;;17.10;99.90;;;;;;5113158;28;20115;-57
2022/09/11 05:11:17;;;;;;;47.03;20.15;;;17.10;99.90;;;;;;5113501;28;20051;-57
2022/09/11 05:13:43;;;;;;;41.22;19.90;;;17.10;99.90;;;;;;5114533;28;20020;-57
2022/09/11 05:16:12;;;;;;;37.17;17.75;;;17.20;99.90;;;;;;5113090;28;20032;-56
2022/09/11 05:18:40;;;;;;;37.03;18.02;;;17.30;99.90;;;;;;5112998;28;20497;-56
2022/09/11 05:21:14;;;;;;;39.50;18.40;;;17.40;99.90;;;;;;5112990;28;20031;-56
2022/09/11 05:23:41;;;;;;;40.50;18.40;;;17.30;99.90;;;;;;5113331;28;20043;-56
2022/09/11 05:26:15;;;;;;;32.10;15.88;;;17.20;99.90;;;;;;5116639;28;20128;-56
2022/09/11 05:28:41;;;;;;;35.03;16.48;;;17.20;99.90;;;;;;5116724;28;20031;-56
2022/09/11 05:31:12;;;;;;;34.42;16.00;;;17.20;99.90;;;;;;5117803;28;20276;-56
2022/09/11 05:33:39;;;;;;;37.75;16.48;;;17.20;99.90;;;;;;5117898;28;20016;-56
2022/09/11 05:36:05;;;;;;;35.05;16.00;;;17.20;99.90;;;;;;5117991;28;20091;-56
2022/09/11 05:38:35;;;;;;;34.78;16.92;;;17.30;99.90;;;;;;5116233;28;20038;-56
2022/09/11 05:41:04;;;;;;;;;;;17.40;99.90;;;;;;5116775;28;20546;-57
2022/09/11 05:43:32;;;;;;;36.90;16.63;;;17.50;99.90;;;;;;5117683;28;19938;-56
2022/09/11 05:45:58;;;;;;;33.40;15.95;;;17.50;99.90;;;;;;5117583;28;20051;-57
2022/09/11 05:48:28;;;;;;;30.73;16.88;;;17.60;99.90;;;;;;5116197;28;20039;-57
2022/09/11 05:51:03;;;;;;;34.05;16.33;;;17.60;99.90;;;;;;5116110;28;20062;-56
2022/09/11 05:53:33;;;;;;;32.10;17.27;;;17.60;99.90;;;;;;5116253;28;20031;-57
2022/09/11 05:56:11;;;;;;;37.40;17.63;;;17.60;99.90;;;;;;5116213;28;20032;-57
2022/09/11 05:58:38;;;;;;;29.23;16.75;;;17.60;99.90;;;;;;5116106;28;20118;-57
2022/09/11 06:01:18;;;;;;;40.40;17.80;;;17.70;99.90;;;;;;5115645;28;20408;-57
2022/09/11 06:03:48;;;;;;;37.50;19.25;;;17.70;99.90;;;;;;5115921;28;20027;-57
2022/09/11 06:06:18;;;;;;;40.28;19.25;;;17.80;99.90;;;;;;5115946;28;20710;-57
2022/09/11 06:08:46;;;;;;;35.45;19.17;;;17.70;99.90;;;;;;5115708;28;20051;-57
2022/09/11 06:11:14;;;;;;;39.60;19.52;;;17.80;99.90;;;;;;5117093;28;20104;-57
2022/09/11 06:13:43;;;;;;;36.17;18.90;;;18.00;99.90;;;;;;5115518;28;20473;-56
2022/09/11 06:16:20;;;;;;;41.33;19.67;;;18.10;99.90;;;;;;5115582;28;20028;-57
2022/09/11 06:18:48;;;;;;;52.97;20.05;;;18.10;99.90;;;;;;5115671;28;20035;-57
2022/09/11 06:21:23;;;;;;;42.83;19.90;;;18.10;99.90;;;;;;5115390;28;20088;-56
2022/09/11 06:23:57;;;;;;;47.55;20.90;;;18.10;99.90;;;;;;5095163;28;20032;-57
2022/09/11 06:26:25;;;;;;;49.78;21.63;;;18.30;99.90;;;;;;5096533;28;20032;-57
2022/09/11 06:28:52;;;;;;;49.72;23.05;;;18.40;99.90;;;;;;5096239;28;20054;-56
2022/09/11 06:31:21;;;;;;;44.25;21.30;;;18.50;99.90;;;;;;5095220;28;20031;-57
2022/09/11 06:33:49;;;;;;;36.33;17.77;;;18.40;99.90;;;;;;5094924;28;20024;-57
2022/09/11 06:36:18;;;;;;;35.92;17.25;;;18.50;99.90;;;;;;5094210;28;20412;-57
2022/09/11 06:38:45;;;;;;;39.55;18.52;;;18.40;99.90;;;;;;5094851;28;20050;-57
2022/09/11 06:41:15;;;;;;;39.25;20.38;;;18.30;99.90;;;;;;5094636;28;20040;-57
2022/09/11 06:43:43;;;;;;;43.67;21.20;;;18.40;99.90;;;;;;5094640;28;20032;-57
2022/09/11 06:46:13;;;;;;;35.25;17.20;;;18.40;99.90;;;;;;5096003;28;20039;-57
2022/09/11 06:48:41;;;;;;;37.03;19.48;;;18.50;99.90;;;;;;5094511;28;20039;-57
2022/09/11 06:51:13;;;;;;;40.53;21.10;;;18.50;99.90;;;;;;5094314;28;20539;-57
2022/09/11 06:53:39;;;;;;;41.30;20.63;;;18.70;99.90;;;;;;5094443;28;20470;-57
2022/09/11 06:56:12;;;;;;;43.80;21.20;;;18.70;99.90;;;;;;5094424;28;20532;-57
2022/09/11 06:58:40;;;;;;;40.42;19.40;;;19.10;99.90;;;;;;5077810;28;20035;-57
2022/09/11 07:01:09;;;;;;;42.15;18.92;;;19.40;99.90;;;;;;5094324;28;20062;-57
2022/09/11 07:03:44;;;;;;;38.78;19.90;;;19.60;99.90;;;;;;5094374;28;20052;-57
2022/09/11 07:06:15;;;;;;;45.13;20.55;;;19.70;99.90;;;;;;5094171;28;20032;-57
2022/09/11 07:08:50;;;;;;;43.90;20.17;;;19.70;99.90;;;;;;5094265;28;20028;-57
2022/09/11 07:11:18;;;;;;;48.08;22.80;;;19.70;99.90;;;;;;5094187;28;20024;-57
2022/09/11 07:13:45;;;;;;;51.42;21.58;;;19.60;99.90;;;;;;5094142;28;20030;-57
2022/09/11 07:16:12;;;;;;;47.53;21.65;;;19.80;99.90;;;;;;5095569;28;20031;-57
2022/09/11 07:18:42;;;;;;;39.75;20.52;;;19.80;99.90;;;;;;5093868;28;20040;-57
2022/09/11 07:21:20;;;;;;;39.95;20.90;;;19.80;99.90;;;;;;5093822;28;20405;-57
2022/09/11 07:23:48;;;;;;;47.97;21.30;;;19.50;99.90;;;;;;5094082;28;20036;-57
2022/09/11 07:26:16;;;;;;;42.55;20.98;;;19.60;99.90;;;;;;5093788;28;20024;-57
2022/09/11 07:28:42;;;;;;;46.13;21.35;;;19.60;99.90;;;;;;5128080;27;20076;-57
2022/09/11 07:31:16;;;;;;;40.53;19.13;;;19.70;99.90;;;;;;5093714;28;20088;-57
2022/09/11 07:33:47;;;;;;;37.72;18.50;;;19.50;99.90;;;;;;5095058;28;20034;-57
2022/09/11 07:36:20;;;;;;;42.28;18.27;;;19.40;99.90;;;;;;5093829;28;20451;-57
2022/09/11 07:38:50;;;;;;;40.85;18.33;;;19.50;99.90;;;;;;5127761;27;20031;-57
2022/09/11 07:41:19;;;;;;;35.60;16.67;;;19.70;99.90;;;;;;5127848;27;20066;-57
2022/09/11 07:43:50;;;;;;;36.42;16.25;;;20.10;99.90;;;;;;5093714;28;20031;-57
2022/09/11 07:46:16;;;;;;;41.33;18.17;;;20.50;99.90;;;;;;5093610;28;20046;-57
2022/09/11 07:48:43;;;;;;;32.92;15.88;;;20.60;99.90;;;;;;5092695;28;20356;-57
2022/09/11 07:51:12;;;;;;;30.55;14.55;;;20.70;99.90;;;;;;5093384;28;20101;-57
2022/09/11 07:53:50;;;;;;;31.30;12.98;;;20.70;99.90;;;;;;5093419;28;20028;-57
2022/09/11 07:56:19;;;;;;;29.63;12.85;;;20.70;99.90;;;;;;5093428;28;20035;-57
2022/09/11 07:58:46;;;;;;;24.25;11.75;;;20.70;99.90;;;;;;5093514;28;20036;-57
2022/09/11 08:01:17;;;;;;;14.88;7.93;;;20.80;99.90;;;;;;5093462;28;20131;-57
2022/09/11 08:03:43;;;;;;;;;;;20.70;99.90;;;;;;5093811;28;20470;-57
2022/09/11 08:06:12;;;;;;;12.30;6.57;;;20.70;99.90;;;;;;5093422;28;20369;-57
2022/09/11 08:08:40;;;;;;;16.70;6.70;;;20.90;99.90;;;;;;5093052;28;20035;-57
2022/09/11 08:11:11;;;;;;;12.82;6.03;;;21.10;99.90;;;;;;5094650;28;20031;-57
2022/09/11 08:13:38;;;;;;;9.07;3.90;;;21.00;99.70;;;;;;5093389;28;20032;-57
2022/09/11 08:16:05;;;;;;;7.03;3.80;;;21.20;95.20;;;;;;5093240;28;20046;-57
2022/09/11 08:18:31;;;;;;;7.38;3.50;;;21.40;96.10;;;;;;5093224;28;20128;-57
2022/09/11 08:21:10;;;;;;;7.35;3.67;;;21.30;93.00;;;;;;5093003;28;20032;-57
2022/09/11 08:23:41;;;;;;;6.65;3.70;;;21.40;94.50;;;;;;5113859;28;20023;-57
2022/09/11 08:26:20;;;;;;;9.05;2.88;;;21.40;96.00;;;;;;5113554;28;20035;-57
2022/09/11 08:28:49;;;;;;;3.63;2.15;;;21.50;92.70;;;;;;5113393;28;20035;-57
2022/09/11 08:31:17;;;;;;;4.38;2.33;;;21.60;91.80;;;;;;5113444;28;20023;-57
2022/09/11 08:33:44;;;;;;;3.72;2.15;;;21.70;91.80;;;;;;5113449;28;20028;-57
2022/09/11 08:36:13;;;;;;;6.32;2.00;;;21.60;91.70;;;;;;5113404;28;20034;-57
2022/09/11 08:38:40;;;;;;;4.13;1.52;;;21.50;91.80;;;;;;5113607;28;20027;-57
2022/09/11 08:41:34;;;;;;;1.73;1.25;;;21.60;90.80;;;;;;5113173;28;20126;-58
2022/09/11 08:44:15;;;;;;;2.08;1.02;;;21.60;92.10;;;;;;5113214;28;20032;-57
2022/09/11 08:46:49;;;;;;;2.40;1.15;;;21.60;88.30;;;;;;5114662;28;20389;-58
2022/09/11 08:49:23;;;;;;;3.78;1.67;;;21.20;91.50;;;;;;5114612;28;20096;-57
2022/09/11 08:51:52;;;;;;;4.07;1.30;;;21.30;92.00;;;;;;5112967;28;20043;-57
2022/09/11 08:54:27;;;;;;;5.88;1.10;;;21.30;92.00;;;;;;5113380;28;20030;-58
2022/09/11 08:57:15;;;;;;;2.05;1.00;;;21.10;91.20;;;;;;5113311;28;20035;-58
2022/09/11 08:59:54;;;;;;;3.17;0.88;;;21.20;92.30;;;;;;5115260;28;20377;-57
2022/09/11 09:02:45;;;;;;;2.50;1.13;;;21.20;92.60;;;;;;5117169;28;20027;-57
2022/09/11 09:05:31;;;;;;;3.20;0.90;;;21.40;92.20;;;;;;5117041;28;20031;-57
2022/09/11 09:08:43;;;;;;;2.47;1.00;;;21.50;92.40;;;;;;5116997;28;20035;-57
2022/09/11 09:11:57;;;;;;;3.15;1.40;;;21.60;90.60;;;;;;5038236;28;20029;-57
2022/09/11 09:14:30;;;;;;;1.88;1.20;;;21.30;83.20;;;;;;5050236;28;20173;-57
2022/09/11 09:17:25;;;;;;;2.50;1.45;;;20.70;82.40;;;;;;5038289;28;20111;-57
2022/09/11 09:19:56;;;;;;;3.75;1.20;;;20.60;82.40;;;;;;5038033;28;20028;-57
2022/09/11 09:22:25;;;;;;;2.25;1.33;;;20.30;84.10;;;;;;5038064;28;20033;-57
2022/09/11 09:24:59;;;;;;;2.53;1.25;;;20.10;84.30;;;;;;5054941;28;20049;-58
2022/09/11 09:27:41;;;;;;;2.33;1.38;;;20.20;83.20;;;;;;5037938;28;20029;-57
2022/09/11 09:30:26;;;;;;;2.67;1.67;;;20.40;84.90;;;;;;5038012;28;20041;-57
2022/09/11 09:33:19;;;;;;;1.50;1.05;;;20.40;85.80;;;;;;5038024;28;20533;-57
2022/09/11 09:35:47;;;;;;;1.70;0.85;;;20.80;81.80;;;;;;5038140;28;20045;-57
2022/09/11 09:38:21;;;;;;;1.45;0.70;;;20.70;78.70;;;;;;5037864;28;20029;-57
2022/09/11 09:40:53;;;;;;;1.17;0.75;;;20.40;79.40;;;;;;5056522;28;20028;-57
2022/09/11 09:43:22;;;;;;;2.38;1.00;;;20.60;80.50;;;;;;5116445;28;20057;-57
2022/09/11 09:45:59;;;;;;;3.08;1.13;;;20.80;82.40;;;;;;5117654;28;20317;-57
2022/09/11 09:48:27;;;;;;;4.07;1.35;;;20.90;79.90;;;;;;5117259;28;20032;-57
2022/09/11 09:50:53;;;;;;;3.08;1.02;;;20.80;77.60;;;;;;5117343;28;20477;-57
2022/09/11 09:53:37;;;;;;;3.70;0.90;;;21.00;78.40;;;;;;5117457;28;20028;-58
2022/09/11 09:56:04;;;;;;;2.20;0.70;;;21.30;78.80;;;;;;5117339;28;20031;-57
2022/09/11 09:58:35;;;;;;;6.47;1.27;;;21.40;79.80;;;;;;5117398;28;20038;-58
2022/09/11 10:01:01;;;;;;;6.50;1.25;;;21.50;79.80;;;;;;5117178;28;20540;-58
2022/09/11 10:03:27;;;;;;;2.60;1.15;;;21.50;80.00;;;;;;5117243;28;20055;-58
2022/09/11 10:05:55;;;;;;;4.22;1.25;;;21.50;81.30;;;;;;5117349;28;20020;-58
2022/09/11 10:08:35;;;;;;;3.60;1.17;;;21.30;78.30;;;;;;5116959;28;20039;-57
2022/09/11 10:11:12;;;;;;;5.82;1.17;;;21.30;81.40;;;;;;5116253;28;20032;-58
2022/09/11 10:13:43;;;;;;;3.55;1.17;;;21.30;84.10;;;;;;5117116;28;20062;-58
2022/09/11 10:16:24;;;;;;;7.93;1.67;;;21.50;85.00;;;;;;5116902;27;20080;-58
2022/09/11 10:18:50;;;;;;;6.97;2.00;;;21.40;81.90;;;;;;5116999;28;20035;-58
2022/09/11 10:21:35;;;;;;;3.78;1.95;;;21.30;82.00;;;;;;5116947;28;20554;-57
2022/09/11 10:24:25;;;;;;;6.85;2.45;;;21.30;82.20;;;;;;5096279;28;20487;-57
2022/09/11 10:26:53;;;;;;;6.32;2.33;;;21.50;83.00;;;;;;5096754;28;20478;-58
2022/09/11 10:29:23;;;;;;;6.82;3.08;;;21.70;82.30;;;;;;5096247;28;20036;-58
2022/09/11 10:32:01;;;;;;;4.82;2.85;;;21.90;81.40;;;;;;5096474;28;20020;-58
2022/09/11 10:34:34;;;;;;;5.55;2.50;;;22.00;84.60;;;;;;5095945;28;20427;-58
2022/09/11 10:37:06;;;;;;;18.58;2.85;;;21.80;81.60;;;;;;5096208;28;20034;-58
2022/09/11 10:39:35;;;;;;;9.57;3.03;;;21.80;84.20;;;;;;5096208;28;20028;-57
2022/09/11 10:42:17;;;;;;;9.63;1.95;;;22.10;84.60;;;;;;5096115;28;20058;-57
2022/09/11 10:44:45;;;;;;;5.43;1.77;;;22.00;78.90;;;;;;5096000;28;20547;-58
2022/09/11 10:47:16;;;;;;;6.20;1.30;;;22.20;80.40;;;;;;5095908;28;20313;-58
2022/09/11 10:49:43;;;;;;;2.17;1.33;;;21.80;76.40;;;;;;5096030;28;20028;-57
2022/09/11 10:52:09;;;;;;;4.47;1.70;;;21.70;74.80;;;;;;5094452;28;20111;-58
2022/09/11 10:54:57;;;;;;;4.00;2.00;;;21.60;77.10;;;;;;5095925;28;20035;-58
2022/09/11 10:57:23;;;;;;;6.70;2.63;;;21.40;78.00;;;;;;5095784;28;20461;-58
2022/09/11 11:00:07;;;;;;;7.57;3.40;;;21.40;78.80;;;;;;5095698;28;20056;-58
2022/09/11 11:02:39;;;;;;;3.58;1.70;;;21.60;80.10;;;;;;5095822;28;20028;-58
2022/09/11 11:05:17;;;;;;;11.02;1.92;;;21.50;78.30;;;;;;5095849;28;20032;-58
2022/09/11 11:07:43;;;;;;;4.72;1.83;;;21.60;78.20;;;;;;5095358;28;20072;-58
2022/09/11 11:10:26;;;;;;;3.67;1.30;;;21.60;76.60;;;;;;5095701;28;20024;-58
2022/09/11 11:13:13;;;;;;;3.58;1.63;;;21.80;80.70;;;;;;5094186;28;20028;-57
2022/09/11 11:15:43;;;;;;;2.45;1.58;;;21.90;78.00;;;;;;5095340;28;20358;-57
2022/09/11 11:18:18;;;;;;;4.20;2.05;;;22.00;76.10;;;;;;5095358;28;20028;-58
2022/09/11 11:20:54;;;;;;;9.77;1.85;;;22.50;75.50;;;;;;5095135;28;20034;-58
2022/09/11 11:23:45;;;;;;;8.80;1.38;;;23.00;74.30;;;;;;5112302;28;20062;-58
2022/09/11 11:26:31;;;;;;;7.03;1.70;;;23.20;72.10;;;;;;5115654;28;20035;-58
2022/09/11 11:29:09;;;;;;;3.33;1.80;;;23.20;70.60;;;;;;5115534;28;20028;-58
2022/09/11 11:31:50;;;;;;;2.33;1.88;;;23.00;71.70;;;;;;5115744;28;20051;-58
2022/09/11 11:34:36;;;;;;;4.82;2.15;;;23.30;69.80;;;;;;5115629;28;20035;-58
2022/09/11 11:37:26;;;;;;;2.55;1.27;;;23.30;71.40;;;;;;5115548;28;20019;-58
2022/09/11 11:40:00;;;;;;;6.35;1.85;;;22.80;71.30;;;;;;5115393;28;20022;-58
2022/09/11 11:42:30;;;;;;;4.07;2.08;;;22.40;73.40;;;;;;5115257;28;20536;-58
2022/09/11 11:45:07;;;;;;;2.58;1.83;;;22.50;73.50;;;;;;5115376;28;20530;-57
2022/09/11 11:47:42;;;;;;;5.78;1.42;;;22.60;78.90;;;;;;5115219;28;20566;-58
2022/09/11 11:50:39;;;;;;;4.55;1.70;;;22.40;73.00;;;;;;5115025;28;20039;-58
2022/09/11 11:53:23;;;;;;;2.67;1.40;;;22.80;72.10;;;;;;5115344;28;20024;-58
2022/09/11 11:56:27;;;;;;;3.10;1.67;;;22.80;72.30;;;;;;5114964;28;20122;-58
2022/09/11 11:59:03;;;;;;;2.47;1.40;;;22.80;70.00;;;;;;5115151;28;20504;-58
2022/09/11 12:01:47;;;;;;;2.35;1.77;;;23.10;72.40;;;;;;5115087;28;20027;-58
2022/09/11 12:04:36;;;;;;;3.70;2.00;;;23.50;71.90;;;;;;5115049;28;20038;-58
2022/09/11 12:07:03;;;;;;;2.67;1.73;;;23.00;70.40;;;;;;5115227;28;20046;-58
2022/09/11 12:09:30;;;;;;;5.13;2.45;;;23.30;72.30;;;;;;5114808;28;20019;-58
2022/09/11 12:12:04;;;;;;;6.18;2.88;;;23.30;70.60;;;;;;5115085;28;20053;-58
2022/09/11 12:14:33;;;;;;;4.07;2.80;;;23.80;72.30;;;;;;5114882;28;20492;-58
2022/09/11 12:17:17;;;;;;;4.93;2.60;;;24.50;72.00;;;;;;5114866;28;20181;-58
2022/09/11 12:20:10;;;;;;;3.65;2.13;;;24.80;69.70;;;;;;5114909;28;20098;-58
2022/09/11 12:22:45;;;;;;;5.75;2.10;;;25.20;66.20;;;;;;5114854;28;20543;-58
2022/09/11 12:25:20;;;;;;;7.43;2.75;;;25.80;67.50;;;;;;5115010;28;20034;-58
2022/09/11 12:27:50;;;;;;;5.30;2.92;;;25.90;62.80;;;;;;5113548;28;20080;-58
2022/09/11 12:30:15;;;;;;;2.70;1.88;;;25.60;62.90;;;;;;5113531;28;20469;-58
2022/09/11 12:32:49;;;;;;;5.75;2.35;;;25.70;64.60;;;;;;5114871;28;20031;-58
2022/09/11 12:35:42;;;;;;;6.72;3.08;;;25.70;64.10;;;;;;5117782;28;20054;-58
2022/09/11 12:38:23;;;;;;;8.07;2.53;;;25.60;66.30;;;;;;5118959;28;20515;-58
2022/09/11 12:40:55;;;;;;;;;;;26.00;65.80;;;;;;5119286;28;20023;-58
2022/09/11 12:43:35;;;;;;;7.72;3.20;;;25.80;62.50;;;;;;5119021;28;19942;-58
2022/09/11 12:46:21;;;;;;;6.38;3.30;;;25.50;62.10;;;;;;5118695;28;20427;-58
2022/09/11 12:48:53;;;;;;;4.72;2.65;;;25.10;67.20;;;;;;5096883;28;20047;-58
2022/09/11 12:51:31;;;;;;;5.85;3.70;;;24.80;67.60;;;;;;5118516;28;20306;-58
2022/09/11 12:54:03;;;;;;;12.68;4.50;;;24.90;66.50;;;;;;5118496;28;20028;-58
2022/09/11 12:56:35;;;;;;;7.95;4.05;;;25.10;64.30;;;;;;5118912;28;20023;-58
2022/09/11 12:59:08;;;;;;;4.97;3.10;;;24.90;65.00;;;;;;5118312;28;20028;-58
2022/09/11 13:01:42;;;;;;;6.47;3.30;;;25.00;64.10;;;;;;5118625;28;20076;-58
2022/09/11 13:04:08;;;;;;;5.25;2.72;;;24.70;66.10;;;;;;5118577;28;20081;-58
2022/09/11 13:06:47;;;;;;;7.10;3.40;;;24.60;66.60;;;;;;5118205;28;20020;-58
2022/09/11 13:09:30;;;;;;;5.28;3.55;;;24.60;65.50;;;;;;5118398;28;20027;-58